»·PEaware :: N901TX P19-MMCU

N901TX :: P19-MMCU

FLIGHT INFORMATION

Flight Status: Arrived
Operator: Privately registered:
United States
More flights under this callsign
Pilot: Andrew J. (13363)
Aircraft: SOCATA TBM-900
(TBM9)
More flights by this aircraft type
Origin: P19 Stellar
United States
Destination: MMCU Gen Div P A Roberto Fierro
Mexico
More flights between these airports :: More routes between these airports
Route: +TFD J50 ALIBY SIKMA UJ46 CUU
File this flight plan on PilotEdge
Remarks:
Altitude:
(Current/Filed)
29,000ft
Speed:
(Current/Filed)
314kts
Departed: 12-Dec-18 03:03 PM
Arrived: 12-Dec-18 04:43 PM
Distance/Time
Traveled:
412nm/1:40
Distance/Time
To Go:
Arrived

Flight Plot

Page will automatically refresh every two minutes.

Flight plan parsing failed; only flown route is shown


Map Options




Map Legend


Flown Route
Filed Route
Departure Airport
Arrival Airport
Navaid (VOR, NDB)
Fix

Horizontal Profiles

Position Reports

Time Latitude Longitude Heading Altitude Ground
Speed
12-Dec-18 14:48 33.293770 -111.915459 3 1175ft 0kts
12-Dec-18 14:49 33.293770 -111.915459 3 1175ft 0kts
12-Dec-18 14:50 33.293770 -111.915459 3 1175ft 0kts
12-Dec-18 14:51 33.293770 -111.915459 3 1175ft 0kts
12-Dec-18 14:52 33.293770 -111.915459 3 1175ft 0kts
12-Dec-18 14:53 33.293770 -111.915459 3 1175ft 0kts
12-Dec-18 14:54 33.293770 -111.915459 3 1175ft 0kts
12-Dec-18 14:55 33.293770 -111.915459 3 1175ft 0kts
12-Dec-18 14:56 33.293770 -111.915459 3 1175ft 0kts
12-Dec-18 14:57 33.293770 -111.915459 3 1175ft 0kts
12-Dec-18 14:58 33.293770 -111.915459 3 1175ft 0kts
12-Dec-18 14:59 33.293770 -111.915459 3 1175ft 0kts
12-Dec-18 15:00 33.293770 -111.915459 3 1175ft 0kts
12-Dec-18 15:01 33.293770 -111.915459 3 1175ft 0kts
12-Dec-18 15:02 33.306803 -111.915584 2 1272ft 128kts
12-Dec-18 15:03 33.319294 -111.944271 216 2751ft 157kts
12-Dec-18 15:04 33.272860 -111.945317 175 3964ft 190kts
12-Dec-18 15:05 33.220645 -111.940522 174 5486ft 176kts
12-Dec-18 15:06 33.175484 -111.936230 174 7383ft 158kts
12-Dec-18 15:07 33.133893 -111.932250 175 9608ft 148kts
12-Dec-18 15:08 33.092577 -111.928311 177 11420ft 152kts
12-Dec-18 15:09 33.050457 -111.924320 178 13124ft 153kts
12-Dec-18 15:10 33.007857 -111.920277 179 14675ft 154kts
12-Dec-18 15:11 32.976233 -111.881406 134 16466ft 177kts
12-Dec-18 15:12 32.946852 -111.834018 136 18173ft 180kts
12-Dec-18 15:13 32.916338 -111.785291 136 19702ft 188kts
12-Dec-18 15:14 32.885148 -111.735484 137 21095ft 194kts
12-Dec-18 15:15 32.852422 -111.683211 137 22389ft 202kts
12-Dec-18 15:16 32.823338 -111.625642 115 23516ft 221kts
12-Dec-18 15:17 32.806840 -111.553657 115 24504ft 229kts
12-Dec-18 15:18 32.790018 -111.478926 114 25638ft 240kts
12-Dec-18 15:19 32.772481 -111.401083 114 26932ft 249kts
12-Dec-18 15:20 32.754312 -111.320694 115 28147ft 259kts
12-Dec-18 15:21 32.734654 -111.234094 113 28804ft 285kts
12-Dec-18 15:22 32.713039 -111.139097 113 29014ft 314kts
12-Dec-18 15:23 32.689429 -111.035628 112 29004ft 332kts
12-Dec-18 15:24 32.664815 -110.928277 112 29001ft 341kts
12-Dec-18 15:25 32.639678 -110.819170 111 29019ft 345kts
12-Dec-18 15:26 32.614891 -110.711748 113 29947ft 316kts
12-Dec-18 15:27 32.592429 -110.615199 113 31049ft 302kts
12-Dec-18 15:28 32.568892 -110.514544 112 31094ft 329kts
12-Dec-18 15:29 32.543868 -110.407698 112 31084ft 344kts
12-Dec-18 15:30 32.518024 -110.297728 112 31032ft 354kts
12-Dec-18 15:31 32.491679 -110.186180 112 31038ft 356kts
12-Dec-18 15:32 32.464887 -110.073249 112 31020ft 356kts
12-Dec-18 15:33 32.438078 -109.960822 112 31001ft 357kts
12-Dec-18 15:34 32.411130 -109.848147 112 31032ft 356kts
12-Dec-18 15:35 32.384124 -109.735770 112 31027ft 356kts
12-Dec-18 15:36 32.356928 -109.623094 112 31033ft 356kts
12-Dec-18 15:38 32.329610 -109.510415 112 31032ft 357kts
12-Dec-18 15:39 32.302101 -109.397464 112 31039ft 358kts
12-Dec-18 15:40 32.274943 -109.286332 112 31036ft 357kts
12-Dec-18 15:41 32.248701 -109.173070 111 31052ft 357kts
12-Dec-18 15:42 32.222854 -109.060192 111 31045ft 357kts
12-Dec-18 15:43 32.196779 -108.946924 110 31033ft 359kts
12-Dec-18 15:44 32.170512 -108.833258 110 31044ft 359kts
12-Dec-18 15:45 32.144270 -108.720150 110 31052ft 359kts
12-Dec-18 15:46 32.117750 -108.606461 110 31049ft 359kts
12-Dec-18 15:47 32.091511 -108.494335 110 31188ft 358kts
12-Dec-18 15:48 32.064644 -108.380159 110 31051ft 362kts
12-Dec-18 15:49 32.038118 -108.267874 111 31018ft 361kts
12-Dec-18 15:50 32.011185 -108.154366 110 31008ft 360kts
12-Dec-18 15:51 31.983987 -108.041381 103 31045ft 353kts
12-Dec-18 15:52 31.958166 -107.932297 104 31013ft 339kts
12-Dec-18 15:53 31.932652 -107.826925 108 31011ft 332kts
12-Dec-18 15:54 31.875334 -107.748366 154 31017ft 326kts
12-Dec-18 15:55 31.795927 -107.697881 153 31019ft 324kts
12-Dec-18 15:56 31.716989 -107.647011 154 31014ft 324kts
12-Dec-18 15:57 31.638435 -107.596469 154 31011ft 323kts
12-Dec-18 15:57 31.573006 -107.554449 155 31012ft 322kts
12-Dec-18 15:59 31.481784 -107.495978 156 31013ft 320kts
12-Dec-18 15:59 31.416797 -107.454407 157 31013ft 319kts
12-Dec-18 16:00 31.339760 -107.405198 157 31010ft 315kts
12-Dec-18 16:01 31.263922 -107.356864 158 31013ft 308kts
12-Dec-18 16:02 31.190066 -107.309880 160 30996ft 304kts
12-Dec-18 16:03 31.116328 -107.263044 160 30984ft 301kts
12-Dec-18 16:04 31.043678 -107.216998 161 30985ft 298kts
12-Dec-18 16:05 30.972048 -107.171672 161 30978ft 297kts
12-Dec-18 16:06 30.900083 -107.126181 162 31004ft 295kts
12-Dec-18 16:07 30.829975 -107.081982 162 31009ft 294kts
12-Dec-18 16:08 30.758963 -107.037260 163 31009ft 291kts
12-Dec-18 16:09 30.688447 -106.992943 163 31020ft 292kts
12-Dec-18 16:10 30.617475 -106.948704 159 30980ft 295kts
12-Dec-18 16:11 30.543921 -106.902401 153 31025ft 310kts
12-Dec-18 16:12 30.466785 -106.854100 153 31024ft 320kts
12-Dec-18 16:13 30.387959 -106.804886 153 31022ft 326kts
12-Dec-18 16:14 30.307957 -106.755056 153 31024ft 328kts
12-Dec-18 16:15 30.228306 -106.705515 153 31032ft 329kts
12-Dec-18 16:16 30.147768 -106.655524 153 31032ft 330kts
12-Dec-18 16:17 30.066268 -106.612092 159 31126ft 326kts
12-Dec-18 16:18 29.983307 -106.571293 160 31114ft 328kts
12-Dec-18 16:19 29.900113 -106.530608 160 31119ft 327kts
12-Dec-18 16:20 29.820603 -106.491729 160 31064ft 327kts
12-Dec-18 16:21 29.738257 -106.451519 160 31066ft 326kts
12-Dec-18 16:22 29.655975 -106.411438 160 31067ft 325kts
12-Dec-18 16:23 29.569614 -106.369467 159 29168ft 358kts
12-Dec-18 16:24 29.477815 -106.324866 160 27048ft 366kts
12-Dec-18 16:25 29.385129 -106.279965 160 24879ft 363kts
12-Dec-18 16:26 29.293794 -106.233496 165 22652ft 359kts
12-Dec-18 16:27 29.198534 -106.227083 182 20241ft 340kts
12-Dec-18 16:28 29.106422 -106.229393 187 17742ft 328kts
12-Dec-18 16:29 29.017153 -106.234530 187 15251ft 317kts
12-Dec-18 16:30 28.931929 -106.239485 187 13002ft 296kts
12-Dec-18 16:31 28.854229 -106.243924 187 11976ft 274kts
12-Dec-18 16:32 28.778173 -106.244486 182 10972ft 278kts
12-Dec-18 16:33 28.700702 -106.238340 177 10016ft 281kts
12-Dec-18 16:34 28.624429 -106.219034 167 9310ft 284kts
12-Dec-18 16:35 28.552783 -106.183602 138 8589ft 294kts
12-Dec-18 16:36 28.501656 -106.109490 127 7608ft 299kts
12-Dec-18 16:37 28.484787 -106.028194 53 7459ft 277kts
12-Dec-18 16:38 28.548407 -105.995963 7 6543ft 239kts
12-Dec-18 16:39 28.608427 -105.983443 6 6118ft 209kts
12-Dec-18 16:40 28.652852 -105.974152 5 5170ft 120kts
12-Dec-18 16:41 28.681590 -105.967997 6 4711ft 89kts
12-Dec-18 16:42 28.699380 -105.966387 7 4426ft 27kts
12-Dec-18 16:43 28.700544 -105.968999 307 4426ft 4kts
12-Dec-18 16:44 28.700552 -105.969010 310 4426ft 0kts
12-Dec-18 16:45 28.700552 -105.969010 310 4426ft 0kts
12-Dec-18 16:46 28.700552 -105.969010 310 4426ft 0kts
12-Dec-18 16:47 28.700552 -105.969010 310 4426ft 0kts
12-Dec-18 16:48 28.700552 -105.969010 310 4426ft 0kts
12-Dec-18 16:49 28.700552 -105.969010 310 4426ft 0kts
12-Dec-18 16:50 28.700552 -105.969010 310 4426ft 0kts
12-Dec-18 16:51 28.700552 -105.969010 310 4426ft 0kts
12-Dec-18 16:52 28.700552 -105.969010 310 4426ft 0kts
12-Dec-18 16:53 28.700552 -105.969010 310 4426ft 0kts
12-Dec-18 16:54 28.700552 -105.969010 310 4426ft 0kts
12-Dec-18 16:55 28.700552 -105.969010 310 4426ft 0kts
12-Dec-18 16:56 28.700552 -105.969010 310 4426ft 0kts
12-Dec-18 16:57 28.700552 -105.969010 310 4426ft 0kts

Navigation Log

Ident Type
Flight plan parsing failed, navigation log unavailable